createdAt,value
2023-02-05T00:01:31.279Z,13.93
2023-02-05T00:03:57.977Z,13.70
2023-02-05T00:06:25.515Z,14.37
2023-02-05T00:08:52.381Z,13.00
2023-02-05T00:11:19.183Z,13.53
2023-02-05T00:13:45.900Z,13.37
2023-02-05T00:16:17.140Z,14.13
2023-02-05T00:18:44.448Z,14.13
2023-02-05T00:21:12.404Z,13.87
2023-02-05T00:23:40.536Z,15.43
2023-02-05T00:26:08.590Z,15.93
2023-02-05T00:28:37.355Z,14.20
2023-02-05T00:31:11.308Z,16.73
2023-02-05T00:33:39.137Z,16.43
2023-02-05T00:36:06.754Z,16.63
2023-02-05T00:38:33.592Z,16.67
2023-02-05T00:41:00.353Z,15.17
2023-02-05T00:43:27.180Z,14.33
2023-02-05T00:45:53.959Z,16.33
2023-02-05T00:48:20.997Z,14.17
2023-02-05T00:50:52.054Z,16.47
2023-02-05T00:53:24.307Z,15.77
2023-02-05T00:55:51.670Z,16.77
2023-02-05T00:58:18.639Z,13.17
2023-02-05T01:00:46.065Z,14.70
2023-02-05T01:03:13.906Z,14.67
2023-02-05T01:05:41.513Z,14.30
2023-02-05T01:08:11.764Z,13.30
2023-02-05T01:10:43.753Z,13.23
2023-02-05T01:13:10.539Z,14.23
2023-02-05T01:15:37.528Z,12.47
2023-02-05T01:18:04.543Z,14.00
2023-02-05T01:20:31.378Z,13.33
2023-02-05T01:22:58.120Z,14.17
2023-02-05T01:25:25.010Z,13.23
2023-02-05T01:27:51.772Z,13.30
2023-02-05T01:30:18.705Z,13.10
2023-02-05T01:32:45.420Z,13.60
2023-02-05T01:35:12.224Z,13.27
2023-02-05T01:37:38.953Z,12.80
2023-02-05T01:40:06.367Z,13.93
2023-02-05T01:42:33.613Z,13.63
2023-02-05T01:45:22.271Z,14.20
2023-02-05T01:48:01.287Z,13.83
2023-02-05T01:50:40.324Z,14.23
2023-02-05T01:53:15.386Z,13.47
2023-02-05T01:55:54.423Z,14.43
2023-02-05T01:58:22.780Z,13.20
2023-02-05T02:00:49.830Z,12.90
2023-02-05T02:03:16.822Z,13.27
2023-02-05T02:05:43.551Z,13.37
2023-02-05T02:08:13.331Z,14.53
2023-02-05T02:10:44.011Z,12.90
2023-02-05T02:13:12.700Z,14.30
2023-02-05T02:15:41.260Z,12.87
2023-02-05T02:18:27.834Z,13.73
2023-02-05T02:21:29.769Z,14.67
2023-02-05T02:24:26.211Z,12.80
2023-02-05T02:27:05.135Z,14.13
2023-02-05T02:30:23.048Z,15.63
2023-02-05T02:33:18.959Z,15.00
2023-02-05T02:36:24.700Z,14.23
2023-02-05T02:39:02.859Z,15.23
2023-02-05T02:42:01.813Z,16.53
2023-02-05T02:44:46.811Z,16.00
2023-02-05T02:47:23.752Z,16.73
2023-02-05T02:50:11.909Z,18.47
2023-02-05T02:52:44.085Z,18.03
2023-02-05T02:55:15.622Z,19.63
2023-02-05T02:57:46.260Z,18.90
2023-02-05T03:00:25.351Z,18.33
2023-02-05T03:03:00.948Z,18.23
2023-02-05T03:05:29.522Z,20.20
2023-02-05T03:08:06.003Z,21.53
2023-02-05T03:10:44.396Z,21.43
2023-02-05T03:13:13.154Z,20.83
2023-02-05T03:15:43.945Z,20.10
2023-02-05T03:18:13.462Z,19.70
2023-02-05T03:20:59.231Z,20.53
2023-02-05T03:23:29.856Z,21.30
2023-02-05T03:25:56.722Z,19.90
2023-02-05T03:28:24.379Z,21.30
2023-02-05T03:31:14.806Z,23.17
2023-02-05T03:34:10.794Z,21.23
2023-02-05T03:37:09.981Z,20.90
2023-02-05T03:40:08.712Z,22.70
2023-02-05T03:42:47.135Z,21.77
2023-02-05T03:45:28.139Z,22.00
2023-02-05T03:48:35.591Z,24.30
2023-02-05T03:51:08.105Z,21.87
2023-02-05T03:53:53.527Z,22.90
2023-02-05T03:56:31.690Z,24.90
2023-02-05T03:59:00.042Z,24.90
2023-02-05T04:01:27.919Z,24.80
2023-02-05T04:03:55.146Z,25.67
2023-02-05T04:06:21.930Z,24.60
2023-02-05T04:08:48.639Z,26.27
2023-02-05T04:11:15.397Z,23.70
2023-02-05T04:13:42.131Z,24.90
2023-02-05T04:16:08.923Z,24.30
2023-02-05T04:18:35.679Z,23.80
2023-02-05T04:21:02.472Z,23.47
2023-02-05T04:23:29.241Z,23.50
2023-02-05T04:25:56.470Z,23.23
2023-02-05T04:28:23.251Z,22.97
2023-02-05T04:30:50.027Z,22.07
2023-02-05T04:33:16.779Z,24.00
2023-02-05T04:35:43.537Z,22.23
2023-02-05T04:38:10.358Z,24.00
2023-02-05T04:40:37.130Z,23.90
2023-02-05T04:43:03.883Z,23.07
2023-02-05T04:45:31.404Z,21.33
2023-02-05T04:48:00.207Z,21.23
2023-02-05T04:50:27.410Z,21.07
2023-02-05T04:52:54.290Z,21.40
2023-02-05T04:55:21.189Z,23.30
2023-02-05T04:57:47.980Z,21.33
2023-02-05T05:00:15.507Z,19.20
2023-02-05T05:02:42.267Z,18.80
2023-02-05T05:05:09.147Z,19.87
2023-02-05T05:07:35.839Z,18.03
2023-02-05T05:10:02.629Z,17.77
2023-02-05T05:12:29.404Z,18.80
2023-02-05T05:14:56.186Z,17.80
2023-02-05T05:17:22.938Z,19.67
2023-02-05T05:19:49.687Z,17.13
2023-02-05T05:22:16.417Z,18.00
2023-02-05T05:24:43.319Z,16.00
2023-02-05T05:27:10.276Z,17.27
2023-02-05T05:29:37.534Z,17.40
2023-02-05T05:32:05.287Z,17.73
2023-02-05T05:34:32.017Z,18.03
2023-02-05T05:36:58.724Z,18.10
2023-02-05T05:39:44.052Z,19.20
2023-02-05T05:42:30.789Z,18.77
2023-02-05T05:44:57.559Z,19.53
2023-02-05T05:47:24.273Z,18.67
2023-02-05T05:49:51.050Z,20.17
2023-02-05T05:52:17.807Z,19.90
2023-02-05T05:54:44.565Z,19.47
2023-02-05T05:57:11.305Z,19.30
2023-02-05T05:59:38.076Z,19.47
2023-02-05T06:02:05.621Z,23.63
2023-02-05T06:04:32.460Z,22.27
2023-02-05T06:06:59.960Z,21.57
2023-02-05T06:09:26.759Z,21.37
2023-02-05T06:11:53.666Z,19.03
2023-02-05T06:14:20.425Z,19.77
2023-02-05T06:16:47.164Z,21.20
2023-02-05T06:19:14.052Z,20.57
2023-02-05T06:21:40.764Z,21.33
2023-02-05T06:24:07.610Z,19.30
2023-02-05T06:26:34.392Z,20.40
2023-02-05T06:29:03.296Z,20.50
2023-02-05T06:31:33.130Z,20.43
2023-02-05T06:34:01.276Z,19.43
2023-02-05T06:36:27.987Z,20.53
2023-02-05T06:38:54.741Z,19.80
2023-02-05T06:41:21.511Z,20.00
2023-02-05T06:43:48.331Z,20.63
2023-02-05T06:46:15.715Z,19.03
2023-02-05T06:48:42.453Z,19.70
2023-02-05T06:51:09.189Z,19.53
2023-02-05T06:53:35.936Z,18.90
2023-02-05T06:56:02.676Z,18.30
2023-02-05T06:58:29.445Z,18.23
2023-02-05T07:00:56.204Z,18.03
2023-02-05T07:03:22.982Z,17.33
2023-02-05T07:05:49.670Z,15.57
2023-02-05T07:08:17.214Z,15.93
2023-02-05T07:10:44.046Z,15.67
2023-02-05T07:13:10.825Z,16.53
2023-02-05T07:15:38.005Z,15.53
2023-02-05T07:18:05.432Z,15.60
2023-02-05T07:20:32.293Z,15.27
2023-02-05T07:22:59.020Z,16.73
2023-02-05T07:25:25.812Z,15.90
2023-02-05T07:27:52.630Z,15.77
2023-02-05T07:30:19.509Z,16.03
2023-02-05T07:32:46.250Z,15.03
2023-02-05T07:35:13.010Z,17.27
2023-02-05T07:37:39.760Z,16.17
2023-02-05T07:40:07.444Z,16.20
2023-02-05T07:42:34.147Z,15.83
2023-02-05T07:45:00.908Z,16.13
2023-02-05T07:47:27.591Z,17.13
2023-02-05T07:49:54.394Z,16.33
2023-02-05T07:52:21.225Z,16.40
2023-02-05T07:54:48.673Z,16.10
2023-02-05T07:57:15.432Z,16.37
2023-02-05T07:59:42.436Z,14.40
2023-02-05T08:02:11.432Z,14.70
2023-02-05T08:04:38.177Z,15.83
2023-02-05T08:07:05.635Z,13.93
2023-02-05T08:09:33.107Z,14.50
2023-02-05T08:11:59.863Z,13.40
2023-02-05T08:14:26.658Z,12.57
2023-02-05T08:16:53.512Z,13.20
2023-02-05T08:19:20.220Z,10.60
2023-02-05T08:21:46.964Z,10.30
2023-02-05T08:24:13.710Z,9.03
2023-02-05T08:26:40.443Z,8.87
2023-02-05T08:29:08.471Z,8.73
2023-02-05T08:31:36.752Z,8.40
2023-02-05T08:34:04.284Z,7.43
2023-02-05T08:36:31.471Z,5.87
2023-02-05T08:38:58.224Z,5.20
2023-02-05T08:41:25.373Z,4.10
2023-02-05T08:43:52.136Z,3.73
2023-02-05T08:46:28.185Z,2.47
2023-02-05T08:48:58.395Z,2.33
2023-02-05T08:51:25.353Z,1.60
2023-02-05T08:53:53.368Z,1.70
2023-02-05T08:56:20.521Z,1.50
2023-02-05T08:58:47.403Z,1.20
2023-02-05T09:01:17.266Z,1.10
2023-02-05T09:03:44.910Z,1.00
2023-02-05T09:06:15.605Z,0.90
2023-02-05T09:08:42.811Z,0.87
2023-02-05T09:11:09.874Z,1.47
2023-02-05T09:13:37.090Z,1.17
2023-02-05T09:16:04.151Z,1.30
2023-02-05T09:18:30.883Z,1.43
2023-02-05T09:20:57.741Z,1.53
2023-02-05T09:23:24.550Z,1.30
2023-02-05T09:25:51.292Z,1.17
2023-02-05T09:28:18.209Z,1.63
2023-02-05T09:30:46.174Z,1.13
2023-02-05T09:33:14.284Z,2.07
2023-02-05T09:35:42.072Z,1.50
2023-02-05T09:38:13.156Z,1.53
2023-02-05T09:41:03.000Z,1.40
2023-02-05T09:43:48.313Z,1.50
2023-02-05T09:46:53.117Z,1.47
2023-02-05T09:49:32.292Z,1.20
2023-02-05T09:52:13.998Z,1.00
2023-02-05T09:54:47.037Z,1.60
2023-02-05T09:57:25.033Z,1.23
2023-02-05T09:59:51.952Z,1.27
2023-02-05T10:02:49.929Z,1.57
2023-02-05T10:05:21.128Z,1.40
2023-02-05T10:08:12.009Z,1.40
2023-02-05T10:10:51.036Z,1.53
2023-02-05T10:13:37.778Z,1.33
2023-02-05T10:16:47.304Z,1.77
2023-02-05T10:20:00.650Z,1.40
2023-02-05T10:22:47.554Z,2.27
2023-02-05T10:25:45.780Z,2.30
2023-02-05T10:28:52.738Z,1.70
2023-02-05T10:31:42.129Z,2.30
2023-02-05T10:34:36.525Z,1.80
2023-02-05T10:37:12.014Z,2.20
2023-02-05T10:39:38.930Z,1.60
2023-02-05T10:42:17.341Z,1.83
2023-02-05T10:44:48.879Z,1.73
2023-02-05T10:47:47.002Z,1.63
2023-02-05T10:50:20.713Z,3.17
2023-02-05T10:52:47.532Z,1.30
2023-02-05T10:55:14.725Z,2.03
2023-02-05T10:57:41.713Z,2.33
2023-02-05T11:00:22.619Z,1.97
2023-02-05T11:02:54.902Z,1.73
2023-02-05T11:05:34.431Z,2.70
2023-02-05T11:08:01.467Z,2.03
2023-02-05T11:10:33.781Z,1.80
2023-02-05T11:13:21.727Z,1.80
2023-02-05T11:16:08.347Z,1.47
2023-02-05T11:18:40.998Z,2.57
2023-02-05T11:21:10.522Z,2.47
2023-02-05T11:23:43.004Z,2.13
2023-02-05T11:26:24.889Z,1.97
2023-02-05T11:28:52.245Z,2.63
2023-02-05T11:31:26.380Z,3.27
2023-02-05T11:34:14.880Z,3.90
2023-02-05T11:36:53.552Z,3.03
2023-02-05T11:39:40.177Z,3.13
2023-02-05T11:42:23.683Z,3.53
2023-02-05T11:44:58.558Z,3.53
2023-02-05T11:47:32.635Z,2.83
2023-02-05T11:50:00.942Z,2.97
2023-02-05T11:52:35.161Z,2.60
2023-02-05T11:55:02.064Z,2.93
2023-02-05T11:57:35.370Z,2.87
2023-02-05T12:00:21.576Z,2.93
2023-02-05T12:02:54.137Z,3.30
2023-02-05T12:05:29.076Z,2.40
2023-02-05T12:08:09.635Z,2.30
2023-02-05T12:11:13.728Z,2.60
2023-02-05T12:14:04.605Z,3.57
2023-02-05T12:17:16.805Z,3.43
2023-02-05T12:20:02.220Z,3.40
2023-02-05T12:23:02.767Z,3.30
2023-02-05T12:26:16.429Z,2.37
2023-02-05T12:29:24.778Z,2.87
2023-02-05T12:32:04.650Z,2.87
2023-02-05T12:35:18.181Z,2.83
2023-02-05T12:38:21.236Z,2.93
2023-02-05T12:41:14.375Z,2.43
2023-02-05T12:43:48.706Z,2.63
2023-02-05T12:46:39.892Z,2.57
2023-02-05T12:49:19.952Z,2.57
2023-02-05T12:51:59.493Z,2.57
2023-02-05T12:54:51.861Z,2.47
2023-02-05T12:57:38.839Z,2.17
2023-02-05T13:00:27.737Z,2.93
2023-02-05T13:03:07.558Z,2.80
2023-02-05T13:05:48.028Z,2.93
2023-02-05T13:08:45.380Z,2.83
2023-02-05T13:11:26.663Z,1.80
2023-02-05T13:14:23.407Z,2.20
2023-02-05T13:17:01.524Z,2.50
2023-02-05T13:19:45.869Z,2.53
2023-02-05T13:22:58.825Z,3.30
2023-02-05T13:25:54.005Z,3.27
2023-02-05T13:28:42.362Z,3.27
2023-02-05T13:31:24.384Z,3.20
2023-02-05T13:33:54.782Z,2.93
2023-02-05T13:36:24.213Z,3.00
2023-02-05T13:39:33.824Z,3.40
2023-02-05T13:42:16.124Z,3.00
2023-02-05T13:45:29.892Z,3.10
2023-02-05T13:48:21.126Z,3.33
2023-02-05T13:51:19.859Z,3.05
2023-02-05T13:54:01.569Z,2.50
2023-02-05T13:56:44.771Z,2.13
2023-02-05T13:59:23.776Z,2.37
2023-02-05T14:02:00.310Z,3.13
2023-02-05T14:04:42.103Z,3.40
2023-02-05T14:07:25.419Z,2.87
2023-02-05T14:09:59.559Z,1.97
2023-02-05T14:12:37.223Z,2.13
2023-02-05T14:15:16.236Z,2.43
2023-02-05T14:17:42.845Z,1.70
2023-02-05T14:20:24.669Z,2.53
2023-02-05T14:23:00.946Z,2.30
2023-02-05T14:25:37.992Z,2.70
2023-02-05T14:28:17.069Z,2.23
2023-02-05T14:30:57.017Z,2.10
2023-02-05T14:33:28.955Z,1.97
2023-02-05T14:36:20.716Z,1.97
2023-02-05T14:39:30.337Z,2.37
2023-02-05T14:41:59.452Z,2.90
2023-02-05T14:44:31.620Z,3.03
2023-02-05T14:47:17.184Z,2.40
2023-02-05T14:49:48.046Z,2.27
2023-02-05T14:52:35.412Z,3.40
2023-02-05T14:55:14.213Z,2.60
2023-02-05T14:57:52.555Z,2.33
2023-02-05T15:00:41.733Z,2.40
2023-02-05T15:03:32.439Z,2.63
2023-02-05T15:06:14.921Z,2.50
2023-02-05T15:08:50.109Z,2.67
2023-02-05T15:11:28.544Z,2.53
2023-02-05T15:14:24.370Z,1.87
2023-02-05T15:17:11.525Z,3.07
2023-02-05T15:19:49.988Z,2.40
2023-02-05T15:22:31.088Z,2.90
2023-02-05T15:25:02.028Z,2.53
2023-02-05T15:27:45.320Z,3.30
2023-02-05T15:30:22.840Z,2.67
2023-02-05T15:33:05.471Z,2.90
2023-02-05T15:35:34.535Z,2.63
2023-02-05T15:38:38.806Z,2.70
2023-02-05T15:41:07.887Z,3.03
2023-02-05T15:43:34.660Z,3.23
2023-02-05T15:46:08.529Z,3.30
2023-02-05T15:48:39.402Z,3.93
2023-02-05T15:51:28.568Z,3.20
2023-02-05T15:53:59.079Z,2.93
2023-02-05T15:56:42.309Z,3.47
2023-02-05T15:59:20.226Z,2.93
2023-02-05T16:01:51.122Z,3.57
2023-02-05T16:04:37.885Z,3.00
2023-02-05T16:07:27.884Z,3.27
2023-02-05T16:09:59.380Z,2.70
2023-02-05T16:12:27.251Z,3.03
2023-02-05T16:15:14.553Z,4.03
2023-02-05T16:17:49.778Z,4.13
2023-02-05T16:20:46.883Z,3.30
2023-02-05T16:23:33.938Z,4.77
2023-02-05T16:26:31.108Z,3.50
2023-02-05T16:29:11.720Z,3.33
2023-02-05T16:31:47.474Z,5.70
2023-02-05T16:34:21.555Z,3.37
2023-02-05T16:36:50.278Z,3.40
2023-02-05T16:39:39.500Z,4.03
2023-02-05T16:42:15.547Z,3.57
2023-02-05T16:44:49.620Z,4.23
2023-02-05T16:47:19.737Z,3.10
2023-02-05T16:49:48.851Z,3.87
2023-02-05T16:52:36.451Z,4.80
2023-02-05T16:55:28.118Z,4.40
2023-02-05T16:58:04.648Z,4.37
2023-02-05T17:00:31.707Z,5.83
2023-02-05T17:03:07.317Z,6.50
2023-02-05T17:05:36.970Z,5.93
2023-02-05T17:08:12.138Z,4.90
2023-02-05T17:10:54.813Z,8.73
2023-02-05T17:13:44.819Z,6.27
2023-02-05T17:16:26.775Z,5.30
2023-02-05T17:19:06.475Z,7.53
2023-02-05T17:21:37.415Z,5.73
2023-02-05T17:24:09.069Z,7.33
2023-02-05T17:26:40.902Z,3.23
2023-02-05T17:29:15.250Z,3.97
2023-02-05T17:31:42.355Z,3.50
2023-02-05T17:34:12.244Z,3.43
2023-02-05T17:36:39.058Z,4.33
2023-02-05T17:39:05.798Z,4.13
2023-02-05T17:41:55.423Z,4.50
2023-02-05T17:44:22.180Z,4.30
2023-02-05T17:46:49.462Z,3.37
2023-02-05T17:49:16.188Z,3.90
2023-02-05T17:51:43.795Z,4.30
2023-02-05T17:54:17.549Z,4.40
2023-02-05T17:56:46.622Z,5.37
2023-02-05T17:59:22.935Z,3.10
2023-02-05T18:01:50.881Z,3.50
2023-02-05T18:04:18.896Z,3.77
2023-02-05T18:06:48.831Z,3.20
2023-02-05T18:09:16.466Z,3.93
2023-02-05T18:11:43.194Z,4.27
2023-02-05T18:14:10.403Z,3.60
2023-02-05T18:16:37.517Z,3.73
2023-02-05T18:19:05.082Z,4.13
2023-02-05T18:21:31.877Z,4.07
2023-02-05T18:23:58.766Z,2.87
2023-02-05T18:26:27.066Z,3.73
2023-02-05T18:28:54.660Z,3.40
2023-02-05T18:31:21.537Z,2.97
2023-02-05T18:33:51.428Z,3.00
2023-02-05T18:36:18.369Z,4.07
2023-02-05T18:38:45.117Z,3.90
2023-02-05T18:41:21.684Z,3.50
2023-02-05T18:43:48.589Z,3.60
2023-02-05T18:46:18.247Z,3.50
2023-02-05T18:48:45.897Z,2.87
2023-02-05T18:51:17.474Z,2.57
2023-02-05T18:53:46.016Z,3.77
2023-02-05T18:56:20.095Z,3.40
2023-02-05T18:59:02.187Z,3.27
2023-02-05T19:01:32.245Z,3.63
2023-02-05T19:04:05.878Z,4.40
2023-02-05T19:06:33.669Z,3.30
2023-02-05T19:09:01.404Z,2.77
2023-02-05T19:11:30.298Z,3.50
2023-02-05T19:14:04.653Z,4.10
2023-02-05T19:16:34.293Z,3.77
2023-02-05T19:19:02.615Z,3.90
2023-02-05T19:21:31.415Z,3.37
2023-02-05T19:24:05.276Z,3.77
2023-02-05T19:26:34.206Z,3.83
2023-02-05T19:29:05.216Z,3.03
2023-02-05T19:31:36.922Z,3.67
2023-02-05T19:34:04.759Z,3.00
2023-02-05T19:36:32.087Z,4.40
2023-02-05T19:39:05.722Z,3.00
2023-02-05T19:41:35.770Z,3.40
2023-02-05T19:44:07.316Z,3.53
2023-02-05T19:46:38.717Z,3.37
2023-02-05T19:49:11.750Z,3.97
2023-02-05T19:51:38.578Z,2.80
2023-02-05T19:54:06.664Z,4.47
2023-02-05T19:56:37.607Z,3.97
2023-02-05T19:59:05.498Z,3.70
2023-02-05T20:01:38.471Z,3.87
2023-02-05T20:04:21.175Z,4.20
2023-02-05T20:06:48.952Z,3.57
2023-02-05T20:09:16.979Z,3.00
2023-02-05T20:11:47.756Z,3.80
2023-02-05T20:14:16.658Z,3.93
2023-02-05T20:16:47.119Z,3.47
2023-02-05T20:19:17.191Z,3.53
2023-02-05T20:21:46.208Z,3.97
2023-02-05T20:24:13.524Z,4.97
2023-02-05T20:26:40.766Z,3.80
2023-02-05T20:29:26.103Z,3.70
2023-02-05T20:31:54.863Z,3.70
2023-02-05T20:34:30.401Z,3.90
2023-02-05T20:37:04.806Z,3.80
2023-02-05T20:39:34.787Z,3.70
2023-02-05T20:42:02.361Z,3.70
2023-02-05T20:44:33.886Z,4.57
2023-02-05T20:47:00.731Z,4.27
2023-02-05T20:49:27.765Z,3.97
2023-02-05T20:51:54.883Z,4.60
2023-02-05T20:54:22.996Z,3.67
2023-02-05T20:56:59.004Z,3.40
2023-02-05T20:59:28.381Z,3.70
2023-02-05T21:01:55.775Z,3.80
2023-02-05T21:04:23.064Z,3.53
2023-02-05T21:06:50.057Z,5.33
2023-02-05T21:09:17.147Z,4.73
2023-02-05T21:11:44.006Z,6.43
2023-02-05T21:14:11.225Z,5.50
2023-02-05T21:16:40.176Z,4.27
2023-02-05T21:19:08.331Z,3.63
2023-02-05T21:21:37.224Z,4.30
2023-02-05T21:24:08.111Z,3.83
2023-02-05T21:26:38.591Z,3.30
2023-02-05T21:29:10.790Z,3.97
2023-02-05T21:31:47.930Z,4.20
2023-02-05T21:34:22.568Z,4.30
2023-02-05T21:36:50.646Z,4.60
2023-02-05T21:39:18.607Z,4.23
2023-02-05T21:41:46.300Z,3.23
2023-02-05T21:44:13.401Z,4.00
2023-02-05T21:46:40.282Z,4.03
2023-02-05T21:49:07.076Z,4.37
2023-02-05T21:51:35.197Z,3.67
2023-02-05T21:54:05.705Z,4.47
2023-02-05T21:56:40.714Z,4.47
2023-02-05T21:59:09.179Z,3.73
2023-02-05T22:01:38.573Z,6.53
2023-02-05T22:04:11.685Z,4.87
2023-02-05T22:06:39.821Z,4.23
2023-02-05T22:09:09.793Z,3.63
2023-02-05T22:11:39.168Z,4.13
2023-02-05T22:14:06.785Z,4.37
2023-02-05T22:16:35.261Z,4.37
2023-02-05T22:19:03.605Z,4.63
2023-02-05T22:21:37.332Z,4.10
2023-02-05T22:24:06.545Z,3.53
2023-02-05T22:26:38.132Z,5.43
2023-02-05T22:29:08.773Z,4.63
2023-02-05T22:31:36.091Z,4.87
2023-02-05T22:34:03.407Z,4.13
2023-02-05T22:36:33.483Z,4.90
2023-02-05T22:39:01.391Z,4.70
2023-02-05T22:41:32.913Z,4.63
2023-02-05T22:44:02.120Z,4.53
2023-02-05T22:46:33.156Z,3.43
2023-02-05T22:49:01.947Z,3.57
2023-02-05T22:51:35.784Z,3.57
2023-02-05T22:54:03.878Z,5.17
2023-02-05T22:56:31.138Z,3.57
2023-02-05T22:58:58.250Z,6.13
2023-02-05T23:01:32.154Z,4.67
2023-02-05T23:04:03.047Z,4.47
2023-02-05T23:06:37.539Z,6.97
2023-02-05T23:09:09.868Z,4.27
2023-02-05T23:11:37.294Z,4.00
2023-02-05T23:14:06.789Z,3.43
2023-02-05T23:16:39.100Z,4.10
2023-02-05T23:19:11.837Z,3.60
2023-02-05T23:21:40.226Z,4.97
2023-02-05T23:24:08.669Z,4.50
2023-02-05T23:26:41.920Z,4.20
2023-02-05T23:29:11.937Z,4.53
2023-02-05T23:31:39.357Z,3.97
2023-02-05T23:34:06.599Z,4.37
2023-02-05T23:36:33.485Z,4.23
2023-02-05T23:39:00.294Z,3.73
2023-02-05T23:41:36.379Z,3.77
2023-02-05T23:44:11.950Z,4.03
2023-02-05T23:46:40.772Z,4.57
2023-02-05T23:49:08.742Z,4.93
2023-02-05T23:51:35.934Z,3.87
2023-02-05T23:54:02.865Z,4.87
2023-02-05T23:56:29.876Z,3.93
2023-02-05T23:58:57.137Z,4.30
